createdAt,value
2023-01-02T00:01:56.698Z,6.60
2023-01-02T00:04:58.748Z,6.83
2023-01-02T00:08:00.698Z,6.18
2023-01-02T00:11:02.220Z,6.80
2023-01-02T00:14:03.863Z,6.37
2023-01-02T00:17:05.472Z,5.90
2023-01-02T00:20:07.482Z,6.07
2023-01-02T00:23:10.482Z,5.40
2023-01-02T00:26:12.425Z,5.32
2023-01-02T00:29:14.395Z,5.78
2023-01-02T00:32:16.434Z,5.45
2023-01-02T00:35:18.536Z,5.30
2023-01-02T00:38:20.506Z,5.30
2023-01-02T00:41:22.816Z,5.60
2023-01-02T00:44:24.387Z,5.67
2023-01-02T00:47:27.399Z,5.10
2023-01-02T00:50:29.911Z,5.70
2023-01-02T00:53:31.517Z,5.43
2023-01-02T00:56:33.239Z,5.15
2023-01-02T00:59:35.240Z,5.82
2023-01-02T01:02:37.304Z,5.68
2023-01-02T01:05:42.884Z,5.00
2023-01-02T01:08:44.868Z,5.75
2023-01-02T01:11:46.886Z,5.05
2023-01-02T01:14:48.879Z,5.47
2023-01-02T01:17:50.449Z,5.20
2023-01-02T01:20:52.427Z,5.45
2023-01-02T01:23:55.391Z,5.22
2023-01-02T01:26:57.398Z,4.68
2023-01-02T01:29:59.458Z,5.95
2023-01-02T01:33:01.454Z,6.30
2023-01-02T01:36:24.203Z,6.90
2023-01-02T01:39:25.726Z,6.57
2023-01-02T01:42:33.441Z,6.55
2023-01-02T01:45:35.703Z,6.43
2023-01-02T01:48:38.208Z,5.80
2023-01-02T01:52:05.126Z,6.70
2023-01-02T01:55:13.081Z,5.93
2023-01-02T01:58:19.298Z,5.22
2023-01-02T02:01:21.022Z,5.32
2023-01-02T02:04:26.406Z,5.00
2023-01-02T02:07:30.501Z,4.60
2023-01-02T02:10:32.899Z,4.40
2023-01-02T02:13:35.354Z,4.32
2023-01-02T02:17:06.181Z,4.50
2023-01-02T02:20:33.900Z,4.25
2023-01-02T02:24:13.513Z,4.28
2023-01-02T02:28:03.288Z,4.10
2023-01-02T02:31:17.377Z,4.00
2023-01-02T02:34:30.067Z,4.22
2023-01-02T02:38:10.518Z,4.13
2023-01-02T02:41:37.487Z,4.10
2023-01-02T02:45:01.711Z,4.53
2023-01-02T02:48:25.845Z,4.35
2023-01-02T02:51:36.406Z,3.80
2023-01-02T02:54:44.021Z,4.00
2023-01-02T02:57:48.297Z,4.18
2023-01-02T03:00:50.472Z,4.13
2023-01-02T03:03:52.456Z,3.97
2023-01-02T03:06:59.843Z,3.97
2023-01-02T03:10:23.429Z,4.18
2023-01-02T03:13:53.556Z,4.00
2023-01-02T03:17:02.562Z,3.80
2023-01-02T03:20:10.131Z,3.80
2023-01-02T03:23:20.256Z,3.97
2023-01-02T03:26:26.826Z,3.95
2023-01-02T03:29:40.840Z,3.55
2023-01-02T03:32:50.355Z,3.70
2023-01-02T03:35:57.071Z,3.65
2023-01-02T03:39:06.480Z,3.70
2023-01-02T03:42:15.166Z,3.90
2023-01-02T03:45:30.962Z,3.90
2023-01-02T03:48:41.973Z,3.75
2023-01-02T03:51:43.558Z,3.95
2023-01-02T03:54:45.559Z,3.50
2023-01-02T03:58:15.982Z,3.95
2023-01-02T04:01:44.397Z,3.33
2023-01-02T04:04:51.149Z,3.58
2023-01-02T04:08:06.045Z,4.00
2023-01-02T04:11:09.790Z,3.60
2023-01-02T04:14:20.548Z,3.92
2023-01-02T04:17:25.214Z,3.50
2023-01-02T04:20:31.811Z,3.95
2023-01-02T04:23:45.310Z,3.72
2023-01-02T04:26:57.403Z,4.20
2023-01-02T04:29:59.446Z,4.03
2023-01-02T04:33:07.299Z,4.22
2023-01-02T04:36:14.639Z,4.47
2023-01-02T04:39:20.199Z,3.67
2023-01-02T04:42:21.735Z,4.60
2023-01-02T04:45:23.674Z,4.40
2023-01-02T04:48:25.280Z,4.47
2023-01-02T04:51:27.273Z,4.32
2023-01-02T04:54:29.265Z,4.15
2023-01-02T04:57:32.083Z,4.33
2023-01-02T05:00:34.451Z,4.25
2023-01-02T05:03:43.405Z,3.90
2023-01-02T05:06:44.961Z,4.35
2023-01-02T05:09:46.575Z,3.60
2023-01-02T05:12:48.623Z,4.10
2023-01-02T05:15:57.862Z,4.20
2023-01-02T05:18:59.470Z,3.47
2023-01-02T05:22:19.929Z,3.80
2023-01-02T05:25:21.735Z,3.25
2023-01-02T05:28:23.322Z,3.30
2023-01-02T05:31:24.946Z,3.63
2023-01-02T05:34:26.525Z,3.20
2023-01-02T05:37:30.444Z,3.53
2023-01-02T05:40:32.031Z,3.00
2023-01-02T05:43:36.381Z,3.25
2023-01-02T05:46:39.805Z,3.20
2023-01-02T05:49:42.842Z,3.00
2023-01-02T05:52:46.001Z,3.00
2023-01-02T05:55:49.246Z,3.00
2023-01-02T05:58:51.380Z,3.10
2023-01-02T06:01:53.074Z,3.63
2023-01-02T06:04:54.759Z,3.00
2023-01-02T06:07:56.322Z,3.38
2023-01-02T06:10:58.417Z,3.30
2023-01-02T06:14:01.125Z,3.53
2023-01-02T06:17:02.670Z,3.40
2023-01-02T06:20:04.827Z,3.20
2023-01-02T06:23:06.798Z,3.10
2023-01-02T06:26:18.006Z,3.25
2023-01-02T06:29:20.023Z,3.47
2023-01-02T06:32:21.564Z,3.00
2023-01-02T06:35:23.302Z,3.03
2023-01-02T06:38:27.120Z,3.30
2023-01-02T06:41:29.281Z,3.33
2023-01-02T06:44:30.902Z,3.50
2023-01-02T06:47:33.077Z,3.40
2023-01-02T06:50:36.442Z,3.37
2023-01-02T06:53:39.865Z,3.60
2023-01-02T06:56:41.502Z,3.55
2023-01-02T06:59:43.051Z,3.70
2023-01-02T07:02:45.463Z,4.00
2023-01-02T07:05:47.080Z,3.47
2023-01-02T07:08:50.687Z,3.97
2023-01-02T07:11:53.711Z,3.20
2023-01-02T07:14:56.260Z,3.80
2023-01-02T07:17:58.307Z,4.47
2023-01-02T07:21:00.780Z,4.37
2023-01-02T07:24:03.535Z,4.43
2023-01-02T07:27:05.057Z,4.20
2023-01-02T07:30:07.178Z,4.67
2023-01-02T07:33:09.997Z,4.43
2023-01-02T07:36:15.185Z,4.28
2023-01-02T07:39:16.795Z,4.07
2023-01-02T07:42:18.778Z,4.22
2023-01-02T07:45:20.456Z,4.30
2023-01-02T07:48:22.111Z,4.05
2023-01-02T07:51:27.247Z,4.10
2023-01-02T07:54:33.064Z,3.83
2023-01-02T07:57:34.823Z,3.90
2023-01-02T08:00:36.822Z,4.10
2023-01-02T08:03:39.321Z,4.25
2023-01-02T08:06:41.421Z,4.13
2023-01-02T08:09:43.076Z,3.97
2023-01-02T08:12:44.686Z,3.75
2023-01-02T08:15:46.540Z,3.67
2023-01-02T08:18:54.654Z,3.70
2023-01-02T08:21:57.059Z,3.57
2023-01-02T08:24:59.018Z,3.63
2023-01-02T08:28:01.059Z,3.80
2023-01-02T08:31:08.602Z,3.77
2023-01-02T08:34:14.600Z,3.47
2023-01-02T08:37:16.741Z,3.92
2023-01-02T08:40:18.321Z,4.07
2023-01-02T08:43:21.049Z,3.72
2023-01-02T08:46:22.686Z,3.67
2023-01-02T08:49:24.433Z,3.80
2023-01-02T08:52:26.404Z,3.60
2023-01-02T08:55:28.385Z,4.00
2023-01-02T08:58:30.365Z,3.72
2023-01-02T09:01:33.356Z,3.90
2023-01-02T09:04:35.077Z,3.85
2023-01-02T09:07:37.473Z,4.20
2023-01-02T09:10:39.473Z,4.50
2023-01-02T09:13:42.405Z,3.90
2023-01-02T09:16:44.041Z,3.40
2023-01-02T09:19:45.632Z,3.40
2023-01-02T09:22:47.190Z,3.43
2023-01-02T09:25:48.750Z,3.20
2023-01-02T09:28:50.792Z,3.47
2023-01-02T09:31:52.452Z,3.90
2023-01-02T09:34:53.999Z,3.40
2023-01-02T09:37:55.546Z,3.00
2023-01-02T09:40:58.828Z,3.20
2023-01-02T09:44:05.825Z,3.17
2023-01-02T09:47:11.335Z,2.70
2023-01-02T09:50:18.723Z,2.90
2023-01-02T09:53:22.023Z,3.00
2023-01-02T09:56:33.956Z,3.40
2023-01-02T09:59:51.120Z,3.10
2023-01-02T10:03:11.912Z,3.20
2023-01-02T10:06:29.089Z,2.78
2023-01-02T10:09:45.971Z,3.25
2023-01-02T10:12:54.834Z,2.92
2023-01-02T10:16:00.348Z,2.92
2023-01-02T10:19:08.863Z,2.63
2023-01-02T10:22:15.821Z,2.35
2023-01-02T10:25:33.188Z,2.50
2023-01-02T10:28:58.005Z,2.28
2023-01-02T10:32:02.529Z,2.20
2023-01-02T10:35:06.937Z,2.47
2023-01-02T10:38:17.173Z,2.10
2023-01-02T10:41:19.382Z,2.00
2023-01-02T10:44:33.100Z,1.90
2023-01-02T10:47:39.527Z,1.35
2023-01-02T10:50:47.636Z,1.60
2023-01-02T10:54:01.472Z,1.80
2023-01-02T10:57:03.087Z,1.60
2023-01-02T11:00:06.376Z,1.50
2023-01-02T11:03:22.956Z,1.60
2023-01-02T11:06:31.028Z,1.60
2023-01-02T11:09:38.026Z,1.67
2023-01-02T11:12:48.022Z,2.00
2023-01-02T11:16:00.074Z,1.60
2023-01-02T11:19:04.125Z,1.55
2023-01-02T11:22:05.753Z,1.70
2023-01-02T11:25:29.229Z,1.60
2023-01-02T11:28:34.503Z,1.60
2023-01-02T11:31:44.301Z,1.70
2023-01-02T11:34:56.353Z,1.58
2023-01-02T11:37:58.276Z,1.83
2023-01-02T11:41:01.866Z,1.80
2023-01-02T11:44:03.812Z,1.60
2023-01-02T11:47:10.353Z,1.83
2023-01-02T11:50:23.248Z,1.58
2023-01-02T11:53:34.326Z,1.50
2023-01-02T11:56:39.689Z,1.20
2023-01-02T11:59:47.899Z,1.37
2023-01-02T12:02:52.443Z,1.50
2023-01-02T12:06:09.598Z,1.48
2023-01-02T12:09:15.293Z,1.40
2023-01-02T12:12:41.208Z,1.38
2023-01-02T12:16:13.558Z,1.27
2023-01-02T12:19:32.679Z,1.63
2023-01-02T12:23:13.809Z,1.80
2023-01-02T12:26:20.463Z,1.80
2023-01-02T12:29:48.901Z,1.90
2023-01-02T12:33:32.393Z,2.05
2023-01-02T12:36:57.220Z,1.90
2023-01-02T12:40:27.224Z,1.80
2023-01-02T12:43:32.452Z,1.90
2023-01-02T12:46:37.295Z,1.70
2023-01-02T12:49:55.865Z,1.50
2023-01-02T12:53:09.661Z,1.70
2023-01-02T12:56:27.781Z,2.17
2023-01-02T12:59:48.402Z,1.87
2023-01-02T13:03:15.838Z,1.98
2023-01-02T13:06:49.896Z,2.00
2023-01-02T13:09:54.352Z,2.20
2023-01-02T13:12:57.827Z,2.20
2023-01-02T13:16:10.348Z,2.45
2023-01-02T13:19:48.018Z,2.00
2023-01-02T13:23:11.353Z,1.98
2023-01-02T13:26:19.884Z,2.10
2023-01-02T13:29:26.536Z,1.90
2023-01-02T13:32:30.686Z,1.70
2023-01-02T13:35:37.213Z,1.58
2023-01-02T13:38:40.567Z,1.73
2023-01-02T13:42:14.032Z,1.75
2023-01-02T13:45:30.926Z,2.10
2023-01-02T13:48:43.859Z,2.73
2023-01-02T13:51:45.748Z,1.95
2023-01-02T13:55:21.207Z,2.50
2023-01-02T13:58:25.787Z,2.13
2023-01-02T14:02:00.042Z,2.30
2023-01-02T14:05:40.757Z,2.10
2023-01-02T14:09:04.875Z,1.90
2023-01-02T14:12:12.575Z,1.60
2023-01-02T14:15:21.868Z,1.88
2023-01-02T14:18:30.894Z,2.08
2023-01-02T14:21:43.031Z,2.00
2023-01-02T14:24:49.535Z,1.83
2023-01-02T14:27:55.499Z,1.90
2023-01-02T14:30:58.311Z,1.83
2023-01-02T14:34:01.643Z,1.83
2023-01-02T14:37:03.368Z,2.10
2023-01-02T14:40:19.143Z,2.03
2023-01-02T14:43:36.157Z,2.20
2023-01-02T14:46:38.535Z,1.85
2023-01-02T14:49:43.579Z,2.30
2023-01-02T14:52:51.694Z,2.03
2023-01-02T14:56:00.227Z,2.15
2023-01-02T14:59:04.643Z,2.00
2023-01-02T15:02:16.339Z,2.03
2023-01-02T15:05:26.875Z,2.10
2023-01-02T15:08:49.500Z,2.17
2023-01-02T15:12:14.341Z,2.58
2023-01-02T15:15:24.991Z,3.47
2023-01-02T15:18:33.230Z,6.13
2023-01-02T15:21:39.990Z,5.80
2023-01-02T15:24:48.191Z,5.75
2023-01-02T15:27:53.392Z,5.30
2023-01-02T15:31:04.324Z,4.35
2023-01-02T15:34:06.836Z,4.07
2023-01-02T15:37:10.843Z,3.70
2023-01-02T15:40:17.611Z,3.40
2023-01-02T15:43:38.106Z,3.88
2023-01-02T15:46:40.208Z,2.97
2023-01-02T15:49:44.587Z,3.08
2023-01-02T15:52:49.945Z,3.17
2023-01-02T15:55:51.566Z,3.60
2023-01-02T15:58:53.578Z,3.58
2023-01-02T16:01:55.772Z,3.60
2023-01-02T16:05:18.170Z,3.65
2023-01-02T16:08:22.528Z,4.50
2023-01-02T16:11:24.714Z,4.65
2023-01-02T16:14:37.618Z,4.70
2023-01-02T16:17:40.038Z,4.40
2023-01-02T16:20:41.783Z,3.97
2023-01-02T16:23:52.321Z,3.83
2023-01-02T16:26:54.140Z,3.70
2023-01-02T16:29:56.032Z,3.53
2023-01-02T16:33:01.671Z,3.20
2023-01-02T16:36:03.593Z,3.40
2023-01-02T16:39:51.376Z,3.50
2023-01-02T16:43:03.275Z,3.20
2023-01-02T16:46:10.734Z,3.63
2023-01-02T16:49:22.044Z,3.53
2023-01-02T16:52:23.634Z,3.03
2023-01-02T16:55:25.289Z,3.20
2023-01-02T16:58:27.078Z,2.90
2023-01-02T17:01:29.688Z,3.00
2023-01-02T17:04:31.361Z,3.42
2023-01-02T17:07:33.321Z,3.40
2023-01-02T17:10:37.703Z,3.13
2023-01-02T17:13:39.721Z,4.03
2023-01-02T17:16:41.692Z,4.53
2023-01-02T17:19:43.358Z,4.80
2023-01-02T17:22:44.929Z,5.10
2023-01-02T17:25:47.380Z,4.90
2023-01-02T17:28:49.317Z,5.75
2023-01-02T17:31:50.941Z,5.57
2023-01-02T17:34:53.219Z,5.45
2023-01-02T17:37:54.827Z,5.30
2023-01-02T17:40:59.508Z,4.67
2023-01-02T17:44:02.005Z,5.30
2023-01-02T17:47:38.953Z,5.10
2023-01-02T17:50:28.831Z,4.67
2023-01-02T17:53:30.811Z,4.30
2023-01-02T17:56:32.788Z,4.15
2023-01-02T17:59:35.847Z,4.40
2023-01-02T18:02:38.216Z,4.07
2023-01-02T18:05:40.495Z,3.55
2023-01-02T18:08:42.309Z,3.17
2023-01-02T18:11:44.384Z,3.30
2023-01-02T18:14:46.752Z,3.30
2023-01-02T18:17:49.493Z,3.25
2023-01-02T18:20:52.181Z,3.17
2023-01-02T18:23:57.548Z,3.80
2023-01-02T18:27:18.155Z,4.00
2023-01-02T18:30:23.852Z,4.85
2023-01-02T18:33:27.704Z,5.70
2023-01-02T18:36:31.601Z,5.53
2023-01-02T18:39:42.412Z,5.13
2023-01-02T18:42:46.877Z,4.77
2023-01-02T18:45:52.323Z,4.60
2023-01-02T18:48:54.545Z,4.70
2023-01-02T18:52:12.317Z,4.37
2023-01-02T18:55:14.317Z,4.55
2023-01-02T18:58:35.928Z,5.00
2023-01-02T19:01:44.845Z,4.97
2023-01-02T19:04:46.545Z,4.55
2023-01-02T19:07:48.570Z,4.63
2023-01-02T19:10:56.692Z,4.65
2023-01-02T19:13:59.225Z,5.33
2023-01-02T19:17:13.629Z,7.50
2023-01-02T19:20:15.234Z,6.00
2023-01-02T19:23:43.903Z,5.50
2023-01-02T19:26:51.369Z,4.75
2023-01-02T19:29:53.548Z,4.35
2023-01-02T19:32:55.128Z,4.20
2023-01-02T19:36:00.863Z,3.92
2023-01-02T19:39:11.524Z,4.53
2023-01-02T19:42:21.552Z,3.95
2023-01-02T19:45:26.708Z,5.27
2023-01-02T19:48:28.680Z,5.22
2023-01-02T19:51:32.192Z,5.53
2023-01-02T19:54:34.150Z,5.33
2023-01-02T19:57:36.319Z,5.70
2023-01-02T20:00:38.605Z,5.88
2023-01-02T20:03:40.642Z,5.95
2023-01-02T20:06:42.356Z,5.72
2023-01-02T20:09:44.724Z,5.03
2023-01-02T20:12:46.394Z,5.20
2023-01-02T20:15:48.854Z,5.23
2023-01-02T20:18:50.947Z,4.75
2023-01-02T20:21:52.510Z,5.00
2023-01-02T20:24:55.635Z,6.13
2023-01-02T20:27:57.409Z,4.90
2023-01-02T20:30:59.755Z,4.85
2023-01-02T20:34:02.229Z,4.65
2023-01-02T20:37:05.455Z,6.10
2023-01-02T20:40:08.351Z,4.30
2023-01-02T20:43:10.290Z,3.00
2023-01-02T20:46:12.336Z,4.00
2023-01-02T20:49:14.481Z,4.60
2023-01-02T20:52:19.373Z,4.45
2023-01-02T20:55:21.421Z,4.03
2023-01-02T20:58:23.441Z,3.65
2023-01-02T21:01:26.640Z,3.63
2023-01-02T21:04:36.271Z,2.58
2023-01-02T21:07:39.636Z,2.55
2023-01-02T21:10:43.186Z,2.85
2023-01-02T21:13:44.744Z,2.50
2023-01-02T21:16:46.315Z,2.70
2023-01-02T21:19:48.406Z,2.70
2023-01-02T21:22:49.971Z,2.72
2023-01-02T21:25:52.486Z,2.30
2023-01-02T21:28:54.517Z,2.38
2023-01-02T21:31:56.539Z,2.00
2023-01-02T21:35:01.659Z,2.40
2023-01-02T21:38:03.689Z,2.42
2023-01-02T21:41:25.027Z,2.50
2023-01-02T21:44:26.669Z,2.60
2023-01-02T21:47:29.015Z,3.17
2023-01-02T21:50:31.110Z,3.28
2023-01-02T21:53:33.386Z,3.85
2023-01-02T21:56:35.434Z,3.83
2023-01-02T21:59:37.755Z,2.35
2023-01-02T22:02:39.773Z,2.33
2023-01-02T22:05:41.826Z,1.90
2023-01-02T22:08:43.408Z,2.03
2023-01-02T22:11:57.042Z,2.20
2023-01-02T22:14:58.797Z,1.80
2023-01-02T22:18:00.843Z,1.97
2023-01-02T22:21:02.472Z,1.98
2023-01-02T22:24:04.449Z,2.17
2023-01-02T22:27:09.013Z,2.00
2023-01-02T22:30:22.030Z,2.13
2023-01-02T22:33:29.044Z,1.92
2023-01-02T22:36:31.739Z,2.10
2023-01-02T22:39:33.681Z,2.13
2023-01-02T22:43:10.463Z,2.05
2023-01-02T22:46:27.115Z,2.20
2023-01-02T22:49:31.225Z,1.93
2023-01-02T22:52:34.675Z,2.47
2023-01-02T22:55:37.154Z,2.10
2023-01-02T22:58:38.682Z,2.30
2023-01-02T23:01:42.288Z,2.00
2023-01-02T23:04:44.487Z,2.25
2023-01-02T23:07:46.697Z,1.80
2023-01-02T23:10:49.142Z,1.88
2023-01-02T23:13:56.273Z,1.70
2023-01-02T23:17:17.618Z,1.70
2023-01-02T23:20:19.187Z,1.53
2023-01-02T23:23:21.366Z,1.40
2023-01-02T23:26:25.943Z,1.40
2023-01-02T23:29:28.754Z,1.50
2023-01-02T23:32:30.386Z,1.50
2023-01-02T23:35:32.127Z,1.55
2023-01-02T23:38:34.811Z,1.50
2023-01-02T23:41:36.436Z,1.52
2023-01-02T23:44:39.422Z,1.30
2023-01-02T23:47:40.989Z,1.30
2023-01-02T23:50:46.162Z,1.23
2023-01-02T23:53:48.180Z,1.10
2023-01-02T23:56:51.066Z,0.93
2023-01-02T23:59:53.053Z,0.90
